createdAt,value
2018-04-26T00:01:24.563Z,2.03
2018-04-26T00:03:52.674Z,2.47
2018-04-26T00:06:20.809Z,1.90
2018-04-26T00:08:48.915Z,2.10
2018-04-26T00:11:17.075Z,1.80
2018-04-26T00:13:45.442Z,1.50
2018-04-26T00:16:13.557Z,2.07
2018-04-26T00:18:41.695Z,1.70
2018-04-26T00:21:09.938Z,2.17
2018-04-26T00:23:38.054Z,1.90
2018-04-26T00:26:06.178Z,1.80
2018-04-26T00:28:34.309Z,2.43
2018-04-26T00:31:02.451Z,2.27
2018-04-26T00:33:31.361Z,2.37
2018-04-26T00:35:59.494Z,2.00
2018-04-26T00:38:27.618Z,1.90
2018-04-26T00:40:55.722Z,1.53
2018-04-26T00:43:23.857Z,1.90
2018-04-26T00:45:51.968Z,1.87
2018-04-26T00:48:20.095Z,2.10
2018-04-26T00:50:48.215Z,2.30
2018-04-26T00:53:16.357Z,2.40
2018-04-26T00:55:44.483Z,2.20
2018-04-26T00:58:12.632Z,2.37
2018-04-26T01:00:40.752Z,2.20
2018-04-26T01:03:08.889Z,2.30
2018-04-26T01:05:37.010Z,2.20
2018-04-26T01:08:05.146Z,2.30
2018-04-26T01:10:33.450Z,2.90
2018-04-26T01:13:01.560Z,2.80
2018-04-26T01:15:29.675Z,2.60
2018-04-26T01:17:57.803Z,3.00
2018-04-26T01:20:25.929Z,2.40
2018-04-26T01:22:54.063Z,3.00
2018-04-26T01:25:23.015Z,3.03
2018-04-26T01:27:51.844Z,2.63
2018-04-26T01:30:20.744Z,2.30
2018-04-26T01:32:48.890Z,2.60
2018-04-26T01:35:17.766Z,2.50
2018-04-26T01:37:48.759Z,3.67
2018-04-26T01:40:16.907Z,2.80
2018-04-26T01:42:45.890Z,2.80
2018-04-26T01:45:14.063Z,3.20
2018-04-26T01:47:42.168Z,2.90
2018-04-26T01:50:10.410Z,2.80
2018-04-26T01:52:38.530Z,3.10
2018-04-26T01:55:06.667Z,2.97
2018-04-26T01:57:34.803Z,2.60
2018-04-26T02:00:03.802Z,3.77
2018-04-26T02:02:32.003Z,3.53
2018-04-26T02:05:00.134Z,4.10
2018-04-26T02:07:28.252Z,4.50
2018-04-26T02:09:56.393Z,4.53
2018-04-26T02:12:24.544Z,3.97
2018-04-26T02:14:52.661Z,4.17
2018-04-26T02:17:20.902Z,4.47
2018-04-26T02:19:49.038Z,4.50
2018-04-26T02:22:18.015Z,5.20
2018-04-26T02:24:46.193Z,5.33
2018-04-26T02:27:14.339Z,5.07
2018-04-26T02:29:42.455Z,5.70
2018-04-26T02:32:10.592Z,4.90
2018-04-26T02:34:38.739Z,6.20
2018-04-26T02:37:07.676Z,5.23
2018-04-26T02:39:35.840Z,6.43
2018-04-26T02:42:04.777Z,5.57
2018-04-26T02:44:32.888Z,7.10
2018-04-26T02:47:01.048Z,7.50
2018-04-26T02:49:29.203Z,6.67
2018-04-26T02:51:58.184Z,6.20
2018-04-26T02:54:26.283Z,6.60
2018-04-26T02:56:54.417Z,6.10
2018-04-26T02:59:22.576Z,6.30
2018-04-26T03:01:50.707Z,7.13
2018-04-26T03:04:18.858Z,6.20
2018-04-26T03:06:47.747Z,6.03
2018-04-26T03:09:16.664Z,5.80
2018-04-26T03:11:44.785Z,6.77
2018-04-26T03:14:12.930Z,5.93
2018-04-26T03:16:41.083Z,6.30
2018-04-26T03:19:09.216Z,5.80
2018-04-26T03:21:37.455Z,5.67
2018-04-26T03:24:05.570Z,5.60
2018-04-26T03:26:33.808Z,5.63
2018-04-26T03:29:01.954Z,5.73
2018-04-26T03:31:30.163Z,5.53
2018-04-26T03:33:58.325Z,6.40
2018-04-26T03:36:26.435Z,6.20
2018-04-26T03:38:54.583Z,5.73
2018-04-26T03:41:22.704Z,5.70
2018-04-26T03:43:50.835Z,6.53
2018-04-26T03:46:19.731Z,6.50
2018-04-26T03:48:48.630Z,6.40
2018-04-26T03:51:16.849Z,5.90
2018-04-26T03:53:45.170Z,5.30
2018-04-26T03:56:13.384Z,4.80
2018-04-26T03:58:41.538Z,4.33
2018-04-26T04:01:21.462Z,4.40
2018-04-26T04:04:01.343Z,4.80
2018-04-26T04:06:29.605Z,5.10
2018-04-26T04:08:57.871Z,4.77
2018-04-26T04:11:26.835Z,5.73
2018-04-26T04:13:55.009Z,4.80
2018-04-26T04:16:23.199Z,4.97
2018-04-26T04:18:52.099Z,5.50
2018-04-26T04:21:20.235Z,5.20
2018-04-26T04:23:48.412Z,4.13
2018-04-26T04:26:16.576Z,5.50
2018-04-26T04:28:44.898Z,5.67
2018-04-26T04:31:13.023Z,4.90
2018-04-26T04:33:41.138Z,4.97
2018-04-26T04:36:09.290Z,5.50
2018-04-26T04:38:38.450Z,4.47
2018-04-26T04:41:06.655Z,5.97
2018-04-26T04:43:34.887Z,4.97
2018-04-26T04:46:03.098Z,5.43
2018-04-26T04:48:31.270Z,5.40
2018-04-26T04:50:59.537Z,4.70
2018-04-26T04:53:27.658Z,5.80
2018-04-26T04:55:55.788Z,4.93
2018-04-26T04:58:24.665Z,4.60
2018-04-26T05:00:52.782Z,4.93
2018-04-26T05:03:20.886Z,4.33
2018-04-26T05:05:49.016Z,4.60
2018-04-26T05:08:17.133Z,4.50
2018-04-26T05:10:45.254Z,3.87
2018-04-26T05:13:13.452Z,4.10
2018-04-26T05:15:41.607Z,3.43
2018-04-26T05:18:09.739Z,4.20
2018-04-26T05:20:37.924Z,3.50
2018-04-26T05:23:06.054Z,3.23
2018-04-26T05:25:34.253Z,3.07
2018-04-26T05:28:02.332Z,3.20
2018-04-26T05:30:30.536Z,2.70
2018-04-26T05:32:58.674Z,3.17
2018-04-26T05:35:26.788Z,2.73
2018-04-26T05:37:54.918Z,2.80
2018-04-26T05:40:23.814Z,3.20
2018-04-26T05:42:52.706Z,3.40
2018-04-26T05:45:20.840Z,10.20
2018-04-26T05:47:49.008Z,2.43
2018-04-26T05:50:17.207Z,2.93
2018-04-26T05:52:46.202Z,2.43
2018-04-26T05:55:15.820Z,2.70
2018-04-26T05:57:44.709Z,2.40
2018-04-26T06:00:13.591Z,2.67
2018-04-26T06:02:42.572Z,2.20
2018-04-26T06:05:10.682Z,1.90
2018-04-26T06:07:38.816Z,2.23
2018-04-26T06:10:06.933Z,2.20
2018-04-26T06:12:35.153Z,2.90
2018-04-26T06:15:03.288Z,2.20
2018-04-26T06:17:31.464Z,2.90
2018-04-26T06:19:59.597Z,3.40
2018-04-26T06:22:27.695Z,3.47
2018-04-26T06:24:55.839Z,3.00
2018-04-26T06:27:24.713Z,2.93
2018-04-26T06:29:52.850Z,3.93
2018-04-26T06:32:20.974Z,2.97
2018-04-26T06:34:49.108Z,3.00
2018-04-26T06:37:17.252Z,3.23
2018-04-26T06:39:45.398Z,3.03
2018-04-26T06:42:14.314Z,2.10
2018-04-26T06:44:43.200Z,2.30
2018-04-26T06:47:11.335Z,1.43
2018-04-26T06:49:40.242Z,2.23
2018-04-26T06:52:08.368Z,1.50
2018-04-26T06:54:36.491Z,1.87
2018-04-26T06:57:04.620Z,1.80
2018-04-26T06:59:32.755Z,2.07
2018-04-26T07:02:00.879Z,2.07
2018-04-26T07:04:29.017Z,2.33
2018-04-26T07:06:57.138Z,1.70
2018-04-26T07:09:25.267Z,2.00
2018-04-26T07:11:53.389Z,2.33
2018-04-26T07:14:21.522Z,1.83
2018-04-26T07:16:49.642Z,2.40
2018-04-26T07:19:17.779Z,2.10
2018-04-26T07:21:46.819Z,2.13
2018-04-26T07:24:14.879Z,1.70
2018-04-26T07:26:43.011Z,2.10
2018-04-26T07:29:11.900Z,1.77
2018-04-26T07:31:40.023Z,1.80
2018-04-26T07:34:08.148Z,1.60
2018-04-26T07:36:36.277Z,1.90
2018-04-26T07:39:05.314Z,2.20
2018-04-26T07:41:33.470Z,2.40
2018-04-26T07:44:02.362Z,2.30
2018-04-26T07:46:30.556Z,1.93
2018-04-26T07:48:58.680Z,1.90
2018-04-26T07:51:26.812Z,2.70
2018-04-26T07:53:55.027Z,1.80
2018-04-26T07:56:23.857Z,2.80
2018-04-26T07:58:52.035Z,1.93
2018-04-26T08:01:20.183Z,2.03
2018-04-26T08:03:48.332Z,2.10
2018-04-26T08:06:17.264Z,3.30
2018-04-26T08:08:45.384Z,2.30
2018-04-26T08:11:13.511Z,2.17
2018-04-26T08:13:41.626Z,1.97
2018-04-26T08:16:09.776Z,1.83
2018-04-26T08:18:37.922Z,2.00
2018-04-26T08:21:06.054Z,2.73
2018-04-26T08:23:34.170Z,2.60
2018-04-26T08:26:02.326Z,3.00
2018-04-26T08:28:30.465Z,1.60
2018-04-26T08:30:58.590Z,2.03
2018-04-26T08:33:26.721Z,2.43
2018-04-26T08:35:55.623Z,1.50
2018-04-26T08:38:24.522Z,2.10
2018-04-26T08:40:52.638Z,1.60
2018-04-26T08:43:20.768Z,1.67
2018-04-26T08:45:48.915Z,1.80
2018-04-26T08:48:17.043Z,1.70
2018-04-26T08:50:45.830Z,2.00
2018-04-26T08:53:14.020Z,2.10
2018-04-26T08:55:42.135Z,2.03
2018-04-26T08:58:10.262Z,1.90
2018-04-26T09:00:38.442Z,1.70
2018-04-26T09:03:06.578Z,1.60
2018-04-26T09:05:34.715Z,2.20
2018-04-26T09:08:03.543Z,1.60
2018-04-26T09:10:31.654Z,2.20
2018-04-26T09:12:59.790Z,1.90
2018-04-26T09:15:27.911Z,2.10
2018-04-26T09:17:56.803Z,2.23
2018-04-26T09:20:25.722Z,2.10
2018-04-26T09:22:53.839Z,2.50
2018-04-26T09:25:21.962Z,2.20
2018-04-26T09:27:50.074Z,2.17
2018-04-26T09:30:18.243Z,2.10
2018-04-26T09:32:46.384Z,2.37
2018-04-26T09:35:14.513Z,2.70
2018-04-26T09:37:43.395Z,2.97
2018-04-26T09:40:12.286Z,2.30
2018-04-26T09:42:41.162Z,2.10
2018-04-26T09:45:09.372Z,2.40
2018-04-26T09:47:37.495Z,2.30
2018-04-26T09:50:05.623Z,2.23
2018-04-26T09:52:33.746Z,1.93
2018-04-26T09:55:02.636Z,2.10
2018-04-26T09:57:30.869Z,1.93
2018-04-26T09:59:59.298Z,1.80
2018-04-26T10:02:27.434Z,2.47
2018-04-26T10:04:55.562Z,1.70
2018-04-26T10:07:23.727Z,2.60
2018-04-26T10:09:52.618Z,1.43
2018-04-26T10:12:21.502Z,1.50
2018-04-26T10:14:49.680Z,1.50
2018-04-26T10:17:18.590Z,1.70
2018-04-26T10:19:46.703Z,2.27
2018-04-26T10:22:14.831Z,1.50
2018-04-26T10:24:42.954Z,1.90
2018-04-26T10:27:11.095Z,1.80
2018-04-26T10:29:39.196Z,1.37
2018-04-26T10:32:07.325Z,1.60
2018-04-26T10:34:35.432Z,1.67
2018-04-26T10:37:03.550Z,1.60
2018-04-26T10:39:31.663Z,1.50
2018-04-26T10:41:59.784Z,1.57
2018-04-26T10:44:27.920Z,1.53
2018-04-26T10:46:56.060Z,1.57
2018-04-26T10:49:24.165Z,2.00
2018-04-26T10:51:52.321Z,1.83
2018-04-26T10:54:20.417Z,1.50
2018-04-26T10:56:49.312Z,1.53
2018-04-26T10:59:18.201Z,1.63
2018-04-26T11:01:47.098Z,2.47
2018-04-26T11:04:15.210Z,2.17
2018-04-26T11:06:43.340Z,1.90
2018-04-26T11:09:12.248Z,1.60
2018-04-26T11:11:40.461Z,1.70
2018-04-26T11:14:08.598Z,1.60
2018-04-26T11:16:36.731Z,1.93
2018-04-26T11:19:04.849Z,1.90
2018-04-26T11:21:33.021Z,1.70
2018-04-26T11:24:01.132Z,1.77
2018-04-26T11:26:29.295Z,2.10
2018-04-26T11:28:57.410Z,2.33
2018-04-26T11:31:25.536Z,1.93
2018-04-26T11:33:53.661Z,2.00
2018-04-26T11:36:21.780Z,2.13
2018-04-26T11:38:51.416Z,1.90
2018-04-26T11:41:19.524Z,3.10
2018-04-26T11:43:47.658Z,2.17
2018-04-26T11:46:16.535Z,2.00
2018-04-26T11:48:44.666Z,2.40
2018-04-26T11:51:12.783Z,2.40
2018-04-26T11:53:41.723Z,2.60
2018-04-26T11:56:09.848Z,1.80
2018-04-26T11:58:37.979Z,2.70
2018-04-26T12:01:06.095Z,2.47
2018-04-26T12:03:34.996Z,2.17
2018-04-26T12:06:03.121Z,2.23
2018-04-26T12:08:31.254Z,2.70
2018-04-26T12:10:59.379Z,2.20
2018-04-26T12:13:27.505Z,1.70
2018-04-26T12:15:55.614Z,1.77
2018-04-26T12:18:23.774Z,1.93
2018-04-26T12:20:51.859Z,2.17
2018-04-26T12:23:19.986Z,2.20
2018-04-26T12:25:48.111Z,1.80
2018-04-26T12:28:16.272Z,2.10
2018-04-26T12:30:44.417Z,2.60
2018-04-26T12:33:12.548Z,1.90
2018-04-26T12:35:41.431Z,2.10
2018-04-26T12:38:10.349Z,1.70
2018-04-26T12:40:38.466Z,2.00
2018-04-26T12:43:06.607Z,1.80
2018-04-26T12:45:34.722Z,1.77
2018-04-26T12:48:03.615Z,1.83
2018-04-26T12:50:31.727Z,2.07
2018-04-26T12:52:59.843Z,2.17
2018-04-26T12:55:27.972Z,1.90
2018-04-26T12:57:56.099Z,1.97
2018-04-26T13:00:24.989Z,2.03
2018-04-26T13:02:53.870Z,1.87
2018-04-26T13:05:21.999Z,3.30
2018-04-26T13:07:50.139Z,2.67
2018-04-26T13:10:19.020Z,1.70
2018-04-26T13:12:47.933Z,1.90
2018-04-26T13:15:16.042Z,1.77
2018-04-26T13:17:44.216Z,2.00
2018-04-26T13:20:12.327Z,2.10
2018-04-26T13:22:40.608Z,1.87
2018-04-26T13:25:08.734Z,1.93
2018-04-26T13:27:36.852Z,1.63
2018-04-26T13:30:04.986Z,1.80
2018-04-26T13:32:33.194Z,1.63
2018-04-26T13:35:01.332Z,1.70
2018-04-26T13:37:29.435Z,2.00
2018-04-26T13:39:57.571Z,1.93
2018-04-26T13:42:25.695Z,2.07
2018-04-26T13:44:53.840Z,1.83
2018-04-26T13:47:22.730Z,1.73
2018-04-26T13:49:50.903Z,2.10
2018-04-26T13:52:19.803Z,2.30
2018-04-26T13:54:48.007Z,2.00
2018-04-26T13:57:16.131Z,2.17
2018-04-26T13:59:45.011Z,1.77
2018-04-26T14:02:13.897Z,1.83
2018-04-26T14:04:42.770Z,2.03
2018-04-26T14:07:10.890Z,2.27
2018-04-26T14:09:39.010Z,1.80
2018-04-26T14:12:07.141Z,1.90
2018-04-26T14:14:35.260Z,1.97
2018-04-26T14:17:03.397Z,1.70
2018-04-26T14:19:31.506Z,2.03
2018-04-26T14:21:59.638Z,2.07
2018-04-26T14:24:27.768Z,2.17
2018-04-26T14:26:55.888Z,1.90
2018-04-26T14:29:24.101Z,2.27
2018-04-26T14:31:52.134Z,2.17
2018-04-26T14:34:21.030Z,2.20
2018-04-26T14:36:49.165Z,2.20
2018-04-26T14:39:20.276Z,1.90
2018-04-26T14:41:48.396Z,2.10
2018-04-26T14:44:16.509Z,2.10
2018-04-26T14:46:44.635Z,2.97
2018-04-26T14:49:12.748Z,1.90
2018-04-26T14:51:40.868Z,2.10
2018-04-26T14:54:08.984Z,1.80
2018-04-26T14:56:37.117Z,2.03
2018-04-26T14:59:05.237Z,2.43
2018-04-26T15:01:34.866Z,2.10
2018-04-26T15:04:02.973Z,2.43
2018-04-26T15:06:31.132Z,2.33
2018-04-26T15:08:59.244Z,2.20
2018-04-26T15:11:27.370Z,2.60
2018-04-26T15:13:55.500Z,2.30
2018-04-26T15:16:23.606Z,2.13
2018-04-26T15:18:51.730Z,2.40
2018-04-26T15:21:19.842Z,1.97
2018-04-26T15:23:47.979Z,2.00
2018-04-26T15:26:17.687Z,2.10
2018-04-26T15:28:45.810Z,1.90
2018-04-26T15:31:14.938Z,2.60
2018-04-26T15:33:43.074Z,2.13
2018-04-26T15:36:11.191Z,1.60
2018-04-26T15:38:40.086Z,1.80
2018-04-26T15:41:08.226Z,1.70
2018-04-26T15:43:36.356Z,1.60
2018-04-26T15:46:04.479Z,2.07
2018-04-26T15:48:32.641Z,1.70
2018-04-26T15:51:00.755Z,1.90
2018-04-26T15:53:41.451Z,1.70
2018-04-26T15:56:18.405Z,1.90
2018-04-26T16:12:40.358Z,2.43
2018-04-26T16:15:20.299Z,2.00
2018-04-26T16:18:05.981Z,2.43
2018-04-26T16:20:51.647Z,2.10
2018-04-26T16:23:37.280Z,2.10
2018-04-26T16:26:17.065Z,2.33
2018-04-26T16:29:02.564Z,1.63
2018-04-26T16:45:05.946Z,1.40
2018-04-26T16:47:34.072Z,1.70
2018-04-26T16:50:02.214Z,1.50
2018-04-26T16:52:30.319Z,1.80
2018-04-26T16:54:59.204Z,1.47
2018-04-26T16:57:27.347Z,1.70
2018-04-26T16:59:55.458Z,1.50
2018-04-26T17:02:24.346Z,1.50
2018-04-26T17:04:52.497Z,1.50
2018-04-26T17:07:20.664Z,1.70
2018-04-26T17:09:48.774Z,1.53
2018-04-26T17:12:17.020Z,1.47
2018-04-26T17:14:45.911Z,1.50
2018-04-26T17:17:14.790Z,1.60
2018-04-26T17:19:42.916Z,1.60
2018-04-26T17:22:11.055Z,1.47
2018-04-26T17:24:39.171Z,2.03
2018-04-26T17:27:07.297Z,1.93
2018-04-26T17:29:36.170Z,1.87
2018-04-26T17:32:05.071Z,1.60
2018-04-26T17:34:33.944Z,2.00
2018-04-26T17:37:02.062Z,1.70
2018-04-26T17:39:30.195Z,1.57
2018-04-26T17:41:59.186Z,1.90
2018-04-26T17:44:27.325Z,1.93
2018-04-26T17:46:55.467Z,1.50
2018-04-26T17:49:24.054Z,1.60
2018-04-26T17:51:52.255Z,1.87
2018-04-26T17:54:20.372Z,3.07
2018-04-26T17:56:48.523Z,1.40
2018-04-26T17:59:16.646Z,1.50
2018-04-26T18:01:44.783Z,1.70
2018-04-26T18:04:12.907Z,1.80
2018-04-26T18:06:41.091Z,2.73
2018-04-26T18:09:10.006Z,2.13
2018-04-26T18:11:38.252Z,2.10
2018-04-26T18:14:06.386Z,1.67
2018-04-26T18:16:34.571Z,2.17
2018-04-26T18:19:02.725Z,3.20
2018-04-26T18:21:31.030Z,1.80
2018-04-26T18:23:59.150Z,2.20
2018-04-26T18:26:27.327Z,2.80
2018-04-26T18:28:55.502Z,7.50
2018-04-26T18:31:23.679Z,11.13
2018-04-26T18:33:51.806Z,6.80
2018-04-26T18:36:20.053Z,6.57
2018-04-26T18:38:48.178Z,8.30
2018-04-26T18:41:17.135Z,3.00
2018-04-26T18:43:45.259Z,4.13
2018-04-26T18:46:13.386Z,6.90
2018-04-26T18:48:41.506Z,3.10
2018-04-26T18:51:09.686Z,4.40
2018-04-26T18:53:37.772Z,7.07
2018-04-26T18:56:05.907Z,3.10
2018-04-26T18:58:34.064Z,7.77
2018-04-26T19:01:02.183Z,2.30
2018-04-26T19:03:30.302Z,3.60
2018-04-26T19:05:58.586Z,3.10
2018-04-26T19:08:26.721Z,2.20
2018-04-26T19:10:54.847Z,2.47
2018-04-26T19:13:22.962Z,2.60
2018-04-26T19:15:51.230Z,2.60
2018-04-26T19:18:19.213Z,2.63
2018-04-26T19:20:47.359Z,3.33
2018-04-26T19:23:15.655Z,3.00
2018-04-26T19:25:43.804Z,2.97
2018-04-26T19:28:11.909Z,5.30
2018-04-26T19:30:40.817Z,21.30
2018-04-26T19:33:08.978Z,2.50
2018-04-26T19:35:38.241Z,10.67
2018-04-26T19:38:06.508Z,22.97
2018-04-26T19:40:34.694Z,3.73
2018-04-26T19:43:02.830Z,14.87
2018-04-26T19:45:30.958Z,7.40
2018-04-26T19:47:59.231Z,3.00
2018-04-26T19:50:28.156Z,16.60
2018-04-26T19:52:56.272Z,23.57
2018-04-26T19:55:24.466Z,18.13
2018-04-26T19:57:52.582Z,12.27
2018-04-26T20:00:20.720Z,23.93
2018-04-26T20:02:49.646Z,47.07
2018-04-26T20:05:17.766Z,55.73
2018-04-26T20:07:45.932Z,6.27
2018-04-26T20:10:14.060Z,5.10
2018-04-26T20:12:42.210Z,24.23
2018-04-26T20:15:10.330Z,17.40
2018-04-26T20:17:38.473Z,34.37
2018-04-26T20:20:06.582Z,4.90
2018-04-26T20:22:35.167Z,7.13
2018-04-26T20:25:03.350Z,5.07
2018-04-26T20:27:31.478Z,8.80
2018-04-26T20:29:59.586Z,20.33
2018-04-26T20:32:27.749Z,3.20
2018-04-26T20:34:55.867Z,8.00
2018-04-26T20:37:24.044Z,4.77
2018-04-26T20:39:52.144Z,2.77
2018-04-26T20:42:20.271Z,2.97
2018-04-26T20:44:49.151Z,7.63
2018-04-26T20:47:18.061Z,5.83
2018-04-26T20:49:46.174Z,3.40
2018-04-26T20:52:14.304Z,3.37
2018-04-26T20:54:42.415Z,7.13
2018-04-26T20:57:10.548Z,5.50
2018-04-26T20:59:38.665Z,5.20
2018-04-26T21:02:06.804Z,5.07
2018-04-26T21:04:34.924Z,2.00
2018-04-26T21:07:03.037Z,2.17
2018-04-26T21:09:31.207Z,2.60
2018-04-26T21:11:59.307Z,2.67
2018-04-26T21:14:27.439Z,2.03
2018-04-26T21:16:56.326Z,2.80
2018-04-26T21:19:24.467Z,2.30
2018-04-26T21:21:52.595Z,2.33
2018-04-26T21:24:20.725Z,2.70
2018-04-26T21:26:49.618Z,2.70
2018-04-26T21:29:18.537Z,2.37
2018-04-26T21:31:46.662Z,2.40
2018-04-26T21:34:14.807Z,2.90
2018-04-26T21:36:42.910Z,2.30
2018-04-26T21:39:11.962Z,2.70
2018-04-26T21:41:40.122Z,1.80
2018-04-26T21:44:08.280Z,13.37
2018-04-26T21:46:36.410Z,3.13
2018-04-26T21:49:04.556Z,6.10
2018-04-26T21:51:38.528Z,1.93
2018-04-26T21:54:12.352Z,3.27
2018-04-26T21:56:46.210Z,5.73
2018-04-26T21:59:20.783Z,3.20
2018-04-26T22:01:54.443Z,2.17
2018-04-26T22:04:28.896Z,3.27
2018-04-26T22:06:57.017Z,6.80
2018-04-26T22:09:25.146Z,2.57
2018-04-26T22:11:53.259Z,3.07
2018-04-26T22:14:21.362Z,3.00
2018-04-26T22:16:49.502Z,2.90
2018-04-26T22:19:17.640Z,3.70
2018-04-26T22:21:45.885Z,3.30
2018-04-26T22:24:14.015Z,3.00
2018-04-26T22:26:42.150Z,2.47
2018-04-26T22:29:10.276Z,2.87
2018-04-26T22:31:39.401Z,2.87
2018-04-26T22:34:07.493Z,4.70
2018-04-26T22:36:35.607Z,3.17
2018-04-26T22:39:04.508Z,3.53
2018-04-26T22:41:33.413Z,2.50
2018-04-26T22:44:01.553Z,2.70
2018-04-26T22:46:29.660Z,2.47
2018-04-26T22:48:57.807Z,2.87
2018-04-26T22:51:26.771Z,2.80
2018-04-26T22:53:54.914Z,2.57
2018-04-26T22:56:23.046Z,2.93
2018-04-26T22:58:51.946Z,2.50
2018-04-26T23:01:20.080Z,2.97
2018-04-26T23:03:48.190Z,2.60
2018-04-26T23:06:16.324Z,2.60
2018-04-26T23:08:44.459Z,2.50
2018-04-26T23:11:12.575Z,2.43
2018-04-26T23:13:40.700Z,3.10
2018-04-26T23:16:08.836Z,2.10
2018-04-26T23:18:37.731Z,3.27
2018-04-26T23:21:06.699Z,2.53
2018-04-26T23:23:34.827Z,3.03
2018-04-26T23:26:02.970Z,2.63
2018-04-26T23:28:31.159Z,2.33
2018-04-26T23:30:59.287Z,2.57
2018-04-26T23:33:27.401Z,2.30
2018-04-26T23:35:55.526Z,2.20
2018-04-26T23:38:24.455Z,2.47
2018-04-26T23:40:52.596Z,2.87
2018-04-26T23:43:20.717Z,2.40
2018-04-26T23:45:48.847Z,2.40
2018-04-26T23:48:17.728Z,2.47
2018-04-26T23:50:46.556Z,3.27
2018-04-26T23:53:14.666Z,3.20
2018-04-26T23:55:42.795Z,3.47
2018-04-26T23:58:10.895Z,2.70
